createdAt,value
2022-12-04T00:04:07.652Z,46.5
2022-12-04T00:09:38.175Z,46.5
2022-12-04T00:15:25.857Z,46.5
2022-12-04T00:20:39.291Z,46.5
2022-12-04T00:26:09.736Z,46.5
2022-12-04T00:31:40.406Z,46.5
2022-12-04T00:37:10.821Z,47
2022-12-04T00:42:40.294Z,47
2022-12-04T00:48:10.798Z,47.5
2022-12-04T00:53:41.395Z,47
2022-12-04T00:59:11.951Z,47
2022-12-04T01:04:42.431Z,47
2022-12-04T01:10:12.910Z,47
2022-12-04T01:15:42.438Z,47.5
2022-12-04T01:21:12.911Z,47.5
2022-12-04T01:26:43.366Z,47.5
2022-12-04T01:32:14.129Z,47.5
2022-12-04T01:37:44.438Z,47.5
2022-12-04T01:44:20.055Z,48
2022-12-04T01:49:50.673Z,48
2022-12-04T01:55:21.137Z,48
2022-12-04T02:00:52.391Z,48
2022-12-04T02:06:22.225Z,48
2022-12-04T02:11:52.664Z,48
2022-12-04T02:17:23.256Z,48
2022-12-04T02:22:53.763Z,48
2022-12-04T02:28:24.231Z,48
2022-12-04T02:33:54.820Z,48
2022-12-04T02:39:25.333Z,48
2022-12-04T02:44:55.912Z,48
2022-12-04T02:50:25.379Z,48
2022-12-04T02:55:55.891Z,48
2022-12-04T03:01:26.506Z,48.5
2022-12-04T03:06:56.942Z,48.5
2022-12-04T03:12:27.441Z,48.5
2022-12-04T03:17:56.921Z,48.5
2022-12-04T03:23:27.396Z,48
2022-12-04T03:28:57.881Z,48
2022-12-04T03:34:27.351Z,48
2022-12-04T03:39:58.112Z,48.5
2022-12-04T03:45:28.465Z,48.5
2022-12-04T03:50:58.880Z,48.5
2022-12-04T03:56:29.359Z,48.5
2022-12-04T04:01:58.917Z,48.5
2022-12-04T04:07:35.110Z,48.5
2022-12-04T04:13:00.024Z,48.5
2022-12-04T04:18:30.428Z,48.5
2022-12-04T04:23:59.900Z,48.5
2022-12-04T04:29:30.472Z,48.5
2022-12-04T04:35:00.973Z,48.5
2022-12-04T04:40:31.577Z,48.5
2022-12-04T04:46:02.036Z,48.5
2022-12-04T04:51:31.546Z,48.5
2022-12-04T04:57:01.987Z,48.5
2022-12-04T05:02:32.539Z,48.5
2022-12-04T05:08:02.029Z,48.5
2022-12-04T05:13:32.461Z,48.5
2022-12-04T05:19:02.932Z,48.5
2022-12-04T05:24:32.452Z,48.5
2022-12-04T05:30:02.900Z,49
2022-12-04T05:35:33.362Z,49
2022-12-04T05:41:03.978Z,49
2022-12-04T05:46:34.484Z,48.5
2022-12-04T05:52:03.928Z,49
2022-12-04T05:57:34.429Z,49
2022-12-04T06:04:10.940Z,49
2022-12-04T06:09:40.442Z,49.5
2022-12-04T06:15:10.960Z,49
2022-12-04T06:20:41.491Z,50
2022-12-04T06:26:11.042Z,49
2022-12-04T06:31:41.573Z,48.5
2022-12-04T06:37:11.014Z,48.5
2022-12-04T06:42:41.488Z,48.5
2022-12-04T06:48:11.995Z,47
2022-12-04T06:53:42.552Z,46.5
2022-12-04T06:59:13.016Z,46.5
2022-12-04T07:04:42.553Z,46
2022-12-04T07:10:13.001Z,45.5
2022-12-04T07:15:43.463Z,45.5
2022-12-04T07:21:14.102Z,45
2022-12-04T07:26:44.650Z,44
2022-12-04T07:32:15.179Z,44
2022-12-04T07:37:44.631Z,44.5
2022-12-04T07:43:15.089Z,44.5
2022-12-04T07:48:45.673Z,44
2022-12-04T07:54:16.164Z,44
2022-12-04T07:59:46.623Z,43.5
2022-12-04T08:05:17.344Z,43
2022-12-04T08:10:47.853Z,43
2022-12-04T08:16:18.359Z,42.5
2022-12-04T08:21:47.773Z,42.5
2022-12-04T08:27:18.266Z,43
2022-12-04T08:32:48.718Z,43
2022-12-04T08:38:18.210Z,43
2022-12-04T08:43:48.701Z,43
2022-12-04T08:49:19.264Z,43
2022-12-04T08:54:49.743Z,43
2022-12-04T09:00:20.259Z,42
2022-12-04T09:05:50.830Z,42
2022-12-04T09:11:21.312Z,42.5
2022-12-04T09:16:51.868Z,42
2022-12-04T09:22:22.401Z,42
2022-12-04T09:27:52.865Z,42.5
2022-12-04T09:33:22.371Z,43
2022-12-04T09:38:52.789Z,42.5
2022-12-04T09:44:23.278Z,42.5
2022-12-04T09:49:54.453Z,43
2022-12-04T09:55:24.469Z,42.5
2022-12-04T10:00:53.971Z,42
2022-12-04T10:06:24.443Z,42
2022-12-04T10:11:54.913Z,42
2022-12-04T10:17:30.883Z,42
2022-12-04T10:22:56.008Z,43
2022-12-04T10:28:26.472Z,42
2022-12-04T10:33:57.068Z,42
2022-12-04T10:39:27.549Z,42
2022-12-04T10:44:58.006Z,44
2022-12-04T10:50:28.583Z,42.5
2022-12-04T10:55:59.101Z,42
2022-12-04T11:01:29.848Z,42
2022-12-04T11:07:00.244Z,41.5
2022-12-04T11:12:30.766Z,42
2022-12-04T11:18:00.220Z,42.5
2022-12-04T11:23:30.695Z,42
2022-12-04T11:29:01.210Z,41.5
2022-12-04T11:34:30.806Z,42
2022-12-04T11:40:01.286Z,41
2022-12-04T11:45:30.797Z,41.5
2022-12-04T11:51:01.367Z,41
2022-12-04T11:56:31.856Z,40.5
2022-12-04T12:02:02.549Z,41.5
2022-12-04T12:07:31.892Z,41.5
2022-12-04T12:13:02.324Z,41.5
2022-12-04T12:18:32.813Z,42
2022-12-04T12:24:03.411Z,43
2022-12-04T12:29:33.867Z,43.5
2022-12-04T12:35:03.368Z,42
2022-12-04T12:40:33.842Z,42
2022-12-04T12:46:04.364Z,41.5
2022-12-04T12:51:34.937Z,42
2022-12-04T12:57:05.385Z,40.5
2022-12-04T13:02:35.939Z,41
2022-12-04T13:08:06.578Z,41
2022-12-04T13:13:36.984Z,40.5
2022-12-04T13:19:06.501Z,40.5
2022-12-04T13:24:37.001Z,41
2022-12-04T13:30:07.451Z,41.5
2022-12-04T13:35:38.039Z,43
2022-12-04T13:41:08.539Z,42
2022-12-04T13:46:39.001Z,43.5
2022-12-04T13:52:08.505Z,43
2022-12-04T13:57:38.991Z,42
2022-12-04T14:03:08.567Z,42
2022-12-04T14:08:38.946Z,41.5
2022-12-04T14:14:09.443Z,41
2022-12-04T14:19:38.894Z,40.5
2022-12-04T14:25:09.380Z,41
2022-12-04T14:30:40.037Z,41
2022-12-04T14:36:10.465Z,41
2022-12-04T14:41:40.930Z,42
2022-12-04T14:47:13.652Z,43
2022-12-04T14:52:40.892Z,41
2022-12-04T14:58:11.364Z,40
2022-12-04T15:03:40.984Z,39.5
2022-12-04T15:09:11.414Z,39
2022-12-04T15:14:41.912Z,39
2022-12-04T15:20:12.526Z,39
2022-12-04T15:25:42.963Z,39.5
2022-12-04T15:31:12.538Z,40.5
2022-12-04T15:36:42.971Z,41.5
2022-12-04T15:42:13.429Z,42
2022-12-04T15:47:43.895Z,42.5
2022-12-04T15:53:14.498Z,42.5
2022-12-04T15:58:44.976Z,42.5
2022-12-04T16:04:15.447Z,41.5
2022-12-04T16:09:46.060Z,42.5
2022-12-04T16:15:16.526Z,40.5
2022-12-04T16:20:47.214Z,41
2022-12-04T16:26:17.744Z,41
2022-12-04T16:31:48.267Z,40
2022-12-04T16:37:18.782Z,41
2022-12-04T16:42:49.285Z,42.5
2022-12-04T16:48:19.865Z,40
2022-12-04T16:53:49.353Z,39.5
2022-12-04T16:59:19.850Z,38.5
2022-12-04T17:04:57.039Z,38.5
2022-12-04T17:10:23.554Z,38.5
2022-12-04T17:15:50.360Z,38.5
2022-12-04T17:21:20.877Z,39
2022-12-04T17:26:51.333Z,40
2022-12-04T17:32:21.860Z,41
2022-12-04T17:37:52.439Z,41.5
2022-12-04T17:43:22.945Z,39.5
2022-12-04T17:48:53.430Z,39.5
2022-12-04T17:54:22.929Z,39.5
2022-12-04T17:59:53.385Z,39.5
2022-12-04T18:05:24.006Z,39.5
2022-12-04T18:10:54.450Z,39.5
2022-12-04T18:16:25.113Z,39.5
2022-12-04T18:21:55.561Z,40
2022-12-04T18:27:26.071Z,40
2022-12-04T18:32:56.541Z,40
2022-12-04T18:38:27.171Z,39.5
2022-12-04T18:43:57.640Z,39.5
2022-12-04T18:49:28.110Z,39.5
2022-12-04T18:54:58.747Z,39.5
2022-12-04T19:00:29.195Z,39.5
2022-12-04T19:05:58.893Z,39.5
2022-12-04T19:11:29.322Z,39.5
2022-12-04T19:16:59.983Z,39.5
2022-12-04T19:22:30.350Z,39.5
2022-12-04T19:28:00.026Z,39.5
2022-12-04T19:33:30.332Z,39.5
2022-12-04T19:39:00.804Z,39.5
2022-12-04T19:44:52.171Z,39.5
2022-12-04T19:50:00.769Z,39.5
2022-12-04T19:55:31.258Z,39.5
2022-12-04T20:01:01.923Z,39.5
2022-12-04T20:06:32.428Z,39.5
2022-12-04T20:12:02.895Z,39.5
2022-12-04T20:17:33.577Z,39.5
2022-12-04T20:23:03.958Z,39.5
2022-12-04T20:28:34.576Z,40
2022-12-04T20:34:05.190Z,40
2022-12-04T20:39:35.637Z,40
2022-12-04T20:45:06.210Z,40
2022-12-04T20:50:36.708Z,40
2022-12-04T20:56:07.171Z,41
2022-12-04T21:01:36.756Z,41.5
2022-12-04T21:07:07.153Z,42
2022-12-04T21:12:43.006Z,42
2022-12-04T21:18:08.344Z,42
2022-12-04T21:23:38.850Z,42
2022-12-04T21:29:08.307Z,42
2022-12-04T21:34:38.790Z,42
2022-12-04T21:40:09.401Z,42
2022-12-04T21:45:39.824Z,42
2022-12-04T21:51:26.659Z,42.5
2022-12-04T21:56:40.912Z,42.5
2022-12-04T22:02:11.423Z,42.5
2022-12-04T22:07:41.876Z,42.5
2022-12-04T22:13:11.473Z,42.5
2022-12-04T22:18:41.909Z,42.5
2022-12-04T22:24:12.388Z,42.5
2022-12-04T22:29:51.237Z,43
2022-12-04T22:35:13.468Z,43
2022-12-04T22:40:44.064Z,43.5
2022-12-04T22:46:14.617Z,43.5
2022-12-04T22:51:45.014Z,44
2022-12-04T22:57:15.595Z,44
2022-12-04T23:02:46.412Z,44
2022-12-04T23:08:16.850Z,44
2022-12-04T23:13:47.240Z,44.5
2022-12-04T23:19:17.738Z,44.5
2022-12-04T23:24:48.310Z,44.5
2022-12-04T23:30:23.070Z,44.5
2022-12-04T23:35:49.417Z,44.5
2022-12-04T23:41:19.976Z,44.5
2022-12-04T23:46:50.520Z,44.5
2022-12-04T23:52:21.055Z,45
2022-12-04T23:57:51.526Z,45
